sensor_id;sensor_type;location;lat;lon;timestamp;temperature;humidity
7234;DHT22;3658;47.992;10.158;2023-09-07T00:02:17;22.20;63.70
7234;DHT22;3658;47.992;10.158;2023-09-07T00:04:44;22.20;63.60
7234;DHT22;3658;47.992;10.158;2023-09-07T00:07:11;22.20;63.60
7234;DHT22;3658;47.992;10.158;2023-09-07T00:09:37;22.20;63.60
7234;DHT22;3658;47.992;10.158;2023-09-07T00:12:05;22.20;63.60
7234;DHT22;3658;47.992;10.158;2023-09-07T00:14:32;22.20;63.50
7234;DHT22;3658;47.992;10.158;2023-09-07T00:17:00;22.20;63.60
7234;DHT22;3658;47.992;10.158;2023-09-07T00:19:27;22.20;63.60
7234;DHT22;3658;47.992;10.158;2023-09-07T00:21:57;22.20;63.50
7234;DHT22;3658;47.992;10.158;2023-09-07T00:24:24;22.20;63.50
7234;DHT22;3658;47.992;10.158;2023-09-07T00:26:49;22.20;63.60
7234;DHT22;3658;47.992;10.158;2023-09-07T00:29:17;22.20;63.50
7234;DHT22;3658;47.992;10.158;2023-09-07T00:31:44;22.10;63.40
7234;DHT22;3658;47.992;10.158;2023-09-07T00:34:12;22.10;63.40
7234;DHT22;3658;47.992;10.158;2023-09-07T00:36:39;22.20;63.50
7234;DHT22;3658;47.992;10.158;2023-09-07T00:39:05;22.10;63.40
7234;DHT22;3658;47.992;10.158;2023-09-07T00:41:33;22.10;63.40
7234;DHT22;3658;47.992;10.158;2023-09-07T00:43:59;22.10;63.40
7234;DHT22;3658;47.992;10.158;2023-09-07T00:46:26;22.10;63.40
7234;DHT22;3658;47.992;10.158;2023-09-07T00:48:53;22.10;63.40
7234;DHT22;3658;47.992;10.158;2023-09-07T00:51:21;22.10;63.30
7234;DHT22;3658;47.992;10.158;2023-09-07T00:53:49;22.10;63.30
7234;DHT22;3658;47.992;10.158;2023-09-07T00:56:16;22.10;63.30
7234;DHT22;3658;47.992;10.158;2023-09-07T00:58:43;22.10;63.30
7234;DHT22;3658;47.992;10.158;2023-09-07T01:01:10;22.10;63.20
7234;DHT22;3658;47.992;10.158;2023-09-07T01:03:37;22.10;63.40
7234;DHT22;3658;47.992;10.158;2023-09-07T01:06:07;22.10;63.20
7234;DHT22;3658;47.992;10.158;2023-09-07T01:08:43;22.10;63.30
7234;DHT22;3658;47.992;10.158;2023-09-07T01:11:14;22.10;63.30
7234;DHT22;3658;47.992;10.158;2023-09-07T01:13:41;22.10;63.20
7234;DHT22;3658;47.992;10.158;2023-09-07T01:16:10;22.10;63.20
7234;DHT22;3658;47.992;10.158;2023-09-07T01:18:37;22.10;63.20
7234;DHT22;3658;47.992;10.158;2023-09-07T01:21:06;22.10;63.20
7234;DHT22;3658;47.992;10.158;2023-09-07T01:23:36;22.10;63.20
7234;DHT22;3658;47.992;10.158;2023-09-07T01:26:05;22.10;63.20
7234;DHT22;3658;47.992;10.158;2023-09-07T01:28:34;22.10;63.20
7234;DHT22;3658;47.992;10.158;2023-09-07T01:31:01;22.10;63.10
7234;DHT22;3658;47.992;10.158;2023-09-07T01:33:27;22.10;63.10
7234;DHT22;3658;47.992;10.158;2023-09-07T01:35:54;22.10;63.10
7234;DHT22;3658;47.992;10.158;2023-09-07T01:38:21;22.10;63.10
7234;DHT22;3658;47.992;10.158;2023-09-07T01:40:49;22.10;63.10
7234;DHT22;3658;47.992;10.158;2023-09-07T01:43:16;22.10;63.10
7234;DHT22;3658;47.992;10.158;2023-09-07T01:45:43;22.10;63.10
7234;DHT22;3658;47.992;10.158;2023-09-07T01:48:12;22.10;63.10
7234;DHT22;3658;47.992;10.158;2023-09-07T01:50:38;22.10;63.10
7234;DHT22;3658;47.992;10.158;2023-09-07T01:53:05;22.10;63.10
7234;DHT22;3658;47.992;10.158;2023-09-07T01:55:32;22.10;63.10
7234;DHT22;3658;47.992;10.158;2023-09-07T01:58:00;22.10;63.10
7234;DHT22;3658;47.992;10.158;2023-09-07T02:00:27;22.10;63.10
7234;DHT22;3658;47.992;10.158;2023-09-07T02:02:54;22.10;63.10
7234;DHT22;3658;47.992;10.158;2023-09-07T02:05:20;22.10;63.10
7234;DHT22;3658;47.992;10.158;2023-09-07T02:07:47;22.10;63.10
7234;DHT22;3658;47.992;10.158;2023-09-07T02:10:15;22.10;63.00
7234;DHT22;3658;47.992;10.158;2023-09-07T02:12:42;22.10;63.00
7234;DHT22;3658;47.992;10.158;2023-09-07T02:15:10;22.10;63.10
7234;DHT22;3658;47.992;10.158;2023-09-07T02:17:37;22.10;63.10
7234;DHT22;3658;47.992;10.158;2023-09-07T02:20:04;22.10;63.00
7234;DHT22;3658;47.992;10.158;2023-09-07T02:22:35;22.10;63.00
7234;DHT22;3658;47.992;10.158;2023-09-07T02:25:03;22.10;63.00
7234;DHT22;3658;47.992;10.158;2023-09-07T02:27:31;22.10;63.10
7234;DHT22;3658;47.992;10.158;2023-09-07T02:29:58;22.10;63.00
7234;DHT22;3658;47.992;10.158;2023-09-07T02:32:26;22.10;63.00
7234;DHT22;3658;47.992;10.158;2023-09-07T02:34:53;22.00;63.00
7234;DHT22;3658;47.992;10.158;2023-09-07T02:37:20;22.10;63.00
7234;DHT22;3658;47.992;10.158;2023-09-07T02:39:46;22.10;63.00
7234;DHT22;3658;47.992;10.158;2023-09-07T02:42:13;22.10;63.00
7234;DHT22;3658;47.992;10.158;2023-09-07T02:44:40;22.00;62.90
7234;DHT22;3658;47.992;10.158;2023-09-07T02:47:07;22.00;62.90
7234;DHT22;3658;47.992;10.158;2023-09-07T02:49:35;22.00;62.90
7234;DHT22;3658;47.992;10.158;2023-09-07T02:52:02;22.00;62.90
7234;DHT22;3658;47.992;10.158;2023-09-07T02:54:29;22.00;62.90
7234;DHT22;3658;47.992;10.158;2023-09-07T02:56:56;22.00;62.90
7234;DHT22;3658;47.992;10.158;2023-09-07T02:59:22;22.00;62.90
7234;DHT22;3658;47.992;10.158;2023-09-07T03:01:49;22.00;62.90
7234;DHT22;3658;47.992;10.158;2023-09-07T03:04:16;22.10;63.00
7234;DHT22;3658;47.992;10.158;2023-09-07T03:06:44;22.10;62.90
7234;DHT22;3658;47.992;10.158;2023-09-07T03:09:11;22.00;62.90
7234;DHT22;3658;47.992;10.158;2023-09-07T03:11:38;22.00;62.90
7234;DHT22;3658;47.992;10.158;2023-09-07T03:14:04;22.10;63.00
7234;DHT22;3658;47.992;10.158;2023-09-07T03:16:31;22.00;62.90
7234;DHT22;3658;47.992;10.158;2023-09-07T03:18:58;22.00;62.90
7234;DHT22;3658;47.992;10.158;2023-09-07T03:21:25;22.00;62.80
7234;DHT22;3658;47.992;10.158;2023-09-07T03:23:56;22.00;62.90
7234;DHT22;3658;47.992;10.158;2023-09-07T03:26:23;22.00;62.80
7234;DHT22;3658;47.992;10.158;2023-09-07T03:28:50;22.00;62.80
7234;DHT22;3658;47.992;10.158;2023-09-07T03:31:17;22.00;62.80
7234;DHT22;3658;47.992;10.158;2023-09-07T03:33:43;22.00;62.80
7234;DHT22;3658;47.992;10.158;2023-09-07T03:36:10;22.00;62.80
7234;DHT22;3658;47.992;10.158;2023-09-07T03:38:39;22.00;62.90
7234;DHT22;3658;47.992;10.158;2023-09-07T03:41:07;22.00;62.80
7234;DHT22;3658;47.992;10.158;2023-09-07T03:43:34;22.00;62.80
7234;DHT22;3658;47.992;10.158;2023-09-07T03:46:01;22.00;62.90
7234;DHT22;3658;47.992;10.158;2023-09-07T03:48:28;22.00;62.80
7234;DHT22;3658;47.992;10.158;2023-09-07T03:50:55;22.00;62.80
7234;DHT22;3658;47.992;10.158;2023-09-07T03:53:21;22.00;62.80
7234;DHT22;3658;47.992;10.158;2023-09-07T03:55:48;22.00;62.80
7234;DHT22;3658;47.992;10.158;2023-09-07T03:58:16;22.00;62.80
7234;DHT22;3658;47.992;10.158;2023-09-07T04:00:44;22.00;62.80
7234;DHT22;3658;47.992;10.158;2023-09-07T04:03:11;22.00;62.80
7234;DHT22;3658;47.992;10.158;2023-09-07T04:05:38;22.00;62.80
7234;DHT22;3658;47.992;10.158;2023-09-07T04:08:05;22.00;62.80
7234;DHT22;3658;47.992;10.158;2023-09-07T04:10:32;22.00;62.80
7234;DHT22;3658;47.992;10.158;2023-09-07T04:12:59;22.00;62.80
7234;DHT22;3658;47.992;10.158;2023-09-07T04:15:27;22.00;62.80
7234;DHT22;3658;47.992;10.158;2023-09-07T04:17:54;22.00;62.80
7234;DHT22;3658;47.992;10.158;2023-09-07T04:20:21;22.00;62.80
7234;DHT22;3658;47.992;10.158;2023-09-07T04:22:49;22.00;62.80
7234;DHT22;3658;47.992;10.158;2023-09-07T04:25:16;22.00;62.80
7234;DHT22;3658;47.992;10.158;2023-09-07T04:27:43;22.00;62.80
7234;DHT22;3658;47.992;10.158;2023-09-07T04:30:10;22.00;62.80
7234;DHT22;3658;47.992;10.158;2023-09-07T04:32:38;22.00;63.60
7234;DHT22;3658;47.992;10.158;2023-09-07T04:35:06;22.00;62.80
7234;DHT22;3658;47.992;10.158;2023-09-07T04:37:32;22.00;62.80
7234;DHT22;3658;47.992;10.158;2023-09-07T04:39:59;22.00;62.80
7234;DHT22;3658;47.992;10.158;2023-09-07T04:42:26;22.00;62.80
7234;DHT22;3658;47.992;10.158;2023-09-07T04:44:53;22.00;62.80
7234;DHT22;3658;47.992;10.158;2023-09-07T04:47:20;22.00;62.80
7234;DHT22;3658;47.992;10.158;2023-09-07T04:49:50;22.00;62.80
7234;DHT22;3658;47.992;10.158;2023-09-07T04:52:17;22.00;62.80
7234;DHT22;3658;47.992;10.158;2023-09-07T04:54:44;21.90;62.70
7234;DHT22;3658;47.992;10.158;2023-09-07T04:57:11;21.90;62.70
7234;DHT22;3658;47.992;10.158;2023-09-07T04:59:38;21.90;62.70
7234;DHT22;3658;47.992;10.158;2023-09-07T05:02:05;21.90;62.60
7234;DHT22;3658;47.992;10.158;2023-09-07T05:04:32;21.90;62.70
7234;DHT22;3658;47.992;10.158;2023-09-07T05:07:00;21.90;62.70
7234;DHT22;3658;47.992;10.158;2023-09-07T05:09:27;21.90;62.60
7234;DHT22;3658;47.992;10.158;2023-09-07T05:11:55;21.90;62.70
7234;DHT22;3658;47.992;10.158;2023-09-07T05:14:22;21.90;62.70
7234;DHT22;3658;47.992;10.158;2023-09-07T05:16:49;21.90;62.60
7234;DHT22;3658;47.992;10.158;2023-09-07T05:19:16;21.90;62.60
7234;DHT22;3658;47.992;10.158;2023-09-07T05:21:43;21.90;62.60
7234;DHT22;3658;47.992;10.158;2023-09-07T05:24:13;21.90;62.60
7234;DHT22;3658;47.992;10.158;2023-09-07T05:26:43;21.90;62.60
7234;DHT22;3658;47.992;10.158;2023-09-07T05:29:11;21.90;62.60
7234;DHT22;3658;47.992;10.158;2023-09-07T05:31:38;21.90;62.60
7234;DHT22;3658;47.992;10.158;2023-09-07T05:34:05;22.00;64.20
7234;DHT22;3658;47.992;10.158;2023-09-07T05:36:32;22.10;64.70
7234;DHT22;3658;47.992;10.158;2023-09-07T05:38:59;22.10;65.00
7234;DHT22;3658;47.992;10.158;2023-09-07T05:41:29;22.10;64.90
7234;DHT22;3658;47.992;10.158;2023-09-07T05:43:56;22.20;64.80
7234;DHT22;3658;47.992;10.158;2023-09-07T05:46:23;22.20;64.60
7234;DHT22;3658;47.992;10.158;2023-09-07T05:48:50;22.20;64.50
7234;DHT22;3658;47.992;10.158;2023-09-07T05:51:17;22.20;64.50
7234;DHT22;3658;47.992;10.158;2023-09-07T05:53:44;22.20;64.50
7234;DHT22;3658;47.992;10.158;2023-09-07T05:56:12;22.20;64.60
7234;DHT22;3658;47.992;10.158;2023-09-07T05:58:40;22.20;64.50
7234;DHT22;3658;47.992;10.158;2023-09-07T06:01:07;22.20;64.60
7234;DHT22;3658;47.992;10.158;2023-09-07T06:03:34;22.20;64.50
7234;DHT22;3658;47.992;10.158;2023-09-07T06:06:01;22.20;64.60
7234;DHT22;3658;47.992;10.158;2023-09-07T06:08:29;22.20;64.70
7234;DHT22;3658;47.992;10.158;2023-09-07T06:10:56;22.20;64.70
7234;DHT22;3658;47.992;10.158;2023-09-07T06:13:23;22.20;64.70
7234;DHT22;3658;47.992;10.158;2023-09-07T06:15:52;22.20;64.70
7234;DHT22;3658;47.992;10.158;2023-09-07T06:18:19;22.20;64.60
7234;DHT22;3658;47.992;10.158;2023-09-07T06:20:46;22.20;64.50
7234;DHT22;3658;47.992;10.158;2023-09-07T06:23:13;22.20;64.30
7234;DHT22;3658;47.992;10.158;2023-09-07T06:25:40;22.20;64.30
7234;DHT22;3658;47.992;10.158;2023-09-07T06:28:07;22.20;64.40
7234;DHT22;3658;47.992;10.158;2023-09-07T06:30:33;22.20;64.30
7234;DHT22;3658;47.992;10.158;2023-09-07T06:33:02;22.20;64.30
7234;DHT22;3658;47.992;10.158;2023-09-07T06:35:30;22.20;64.20
7234;DHT22;3658;47.992;10.158;2023-09-07T06:37:57;22.20;64.20
7234;DHT22;3658;47.992;10.158;2023-09-07T06:40:24;22.10;64.10
7234;DHT22;3658;47.992;10.158;2023-09-07T06:42:51;22.10;64.10
7234;DHT22;3658;47.992;10.158;2023-09-07T06:45:18;22.10;64.00
7234;DHT22;3658;47.992;10.158;2023-09-07T06:47:45;22.20;64.10
7234;DHT22;3658;47.992;10.158;2023-09-07T06:50:13;22.10;64.00
7234;DHT22;3658;47.992;10.158;2023-09-07T06:52:40;22.10;64.00
7234;DHT22;3658;47.992;10.158;2023-09-07T06:55:06;22.10;63.90
7234;DHT22;3658;47.992;10.158;2023-09-07T06:57:33;22.10;63.90
7234;DHT22;3658;47.992;10.158;2023-09-07T07:00:00;22.10;63.90
7234;DHT22;3658;47.992;10.158;2023-09-07T07:02:31;22.10;63.90
7234;DHT22;3658;47.992;10.158;2023-09-07T07:04:57;22.10;63.90
7234;DHT22;3658;47.992;10.158;2023-09-07T07:07:25;22.10;63.90
7234;DHT22;3658;47.992;10.158;2023-09-07T07:09:52;22.10;63.80
7234;DHT22;3658;47.992;10.158;2023-09-07T07:12:19;22.10;63.80
7234;DHT22;3658;47.992;10.158;2023-09-07T07:14:46;22.10;63.80
7234;DHT22;3658;47.992;10.158;2023-09-07T07:17:13;22.10;63.80
7234;DHT22;3658;47.992;10.158;2023-09-07T07:19:39;22.10;63.80
7234;DHT22;3658;47.992;10.158;2023-09-07T07:22:08;22.10;63.80
7234;DHT22;3658;47.992;10.158;2023-09-07T07:24:36;22.10;63.80
7234;DHT22;3658;47.992;10.158;2023-09-07T07:27:03;22.10;63.80
7234;DHT22;3658;47.992;10.158;2023-09-07T07:29:30;22.10;63.70
7234;DHT22;3658;47.992;10.158;2023-09-07T07:31:57;22.10;63.70
7234;DHT22;3658;47.992;10.158;2023-09-07T07:34:24;22.10;63.70
7234;DHT22;3658;47.992;10.158;2023-09-07T07:36:50;22.10;63.80
7234;DHT22;3658;47.992;10.158;2023-09-07T07:39:17;22.10;63.70
7234;DHT22;3658;47.992;10.158;2023-09-07T07:41:45;22.10;63.70
7234;DHT22;3658;47.992;10.158;2023-09-07T07:44:12;22.10;63.70
7234;DHT22;3658;47.992;10.158;2023-09-07T07:46:39;22.10;63.70
7234;DHT22;3658;47.992;10.158;2023-09-07T07:49:05;22.10;63.70
7234;DHT22;3658;47.992;10.158;2023-09-07T07:51:32;22.10;63.70
7234;DHT22;3658;47.992;10.158;2023-09-07T07:53:59;22.10;63.70
7234;DHT22;3658;47.992;10.158;2023-09-07T07:56:26;22.10;63.70
7234;DHT22;3658;47.992;10.158;2023-09-07T07:58:54;22.10;63.70
7234;DHT22;3658;47.992;10.158;2023-09-07T08:01:23;22.10;63.70
7234;DHT22;3658;47.992;10.158;2023-09-07T08:03:53;22.10;63.70
7234;DHT22;3658;47.992;10.158;2023-09-07T08:06:20;22.10;63.60
7234;DHT22;3658;47.992;10.158;2023-09-07T08:08:47;22.10;63.60
7234;DHT22;3658;47.992;10.158;2023-09-07T08:11:14;22.10;63.60
7234;DHT22;3658;47.992;10.158;2023-09-07T08:13:40;22.10;63.60
7234;DHT22;3658;47.992;10.158;2023-09-07T08:16:10;22.10;63.60
7234;DHT22;3658;47.992;10.158;2023-09-07T08:18:37;22.10;63.60
7234;DHT22;3658;47.992;10.158;2023-09-07T08:21:05;22.10;63.60
7234;DHT22;3658;47.992;10.158;2023-09-07T08:23:32;22.10;63.60
7234;DHT22;3658;47.992;10.158;2023-09-07T08:26:07;22.10;63.60
7234;DHT22;3658;47.992;10.158;2023-09-07T08:28:35;22.10;63.60
7234;DHT22;3658;47.992;10.158;2023-09-07T08:31:02;22.10;63.70
7234;DHT22;3658;47.992;10.158;2023-09-07T08:33:31;22.10;63.60
7234;DHT22;3658;47.992;10.158;2023-09-07T08:36:06;22.00;63.50
7234;DHT22;3658;47.992;10.158;2023-09-07T08:38:34;22.10;63.60
7234;DHT22;3658;47.992;10.158;2023-09-07T08:41:02;22.10;63.60
7234;DHT22;3658;47.992;10.158;2023-09-07T08:43:33;22.10;63.60
7234;DHT22;3658;47.992;10.158;2023-09-07T08:46:13;22.10;63.60
7234;DHT22;3658;47.992;10.158;2023-09-07T08:48:42;22.10;63.60
7234;DHT22;3658;47.992;10.158;2023-09-07T08:51:12;22.10;63.60
7234;DHT22;3658;47.992;10.158;2023-09-07T08:53:40;22.10;63.60
7234;DHT22;3658;47.992;10.158;2023-09-07T08:56:11;22.10;63.60
7234;DHT22;3658;47.992;10.158;2023-09-07T08:58:38;22.10;63.60
7234;DHT22;3658;47.992;10.158;2023-09-07T09:01:06;22.10;63.60
7234;DHT22;3658;47.992;10.158;2023-09-07T09:03:34;22.10;63.70
7234;DHT22;3658;47.992;10.158;2023-09-07T09:06:03;22.10;63.70
7234;DHT22;3658;47.992;10.158;2023-09-07T09:08:40;22.10;63.70
7234;DHT22;3658;47.992;10.158;2023-09-07T09:11:07;22.10;63.70
7234;DHT22;3658;47.992;10.158;2023-09-07T09:13:34;22.10;63.60
7234;DHT22;3658;47.992;10.158;2023-09-07T09:16:02;22.10;63.60
7234;DHT22;3658;47.992;10.158;2023-09-07T09:18:29;22.10;63.60
7234;DHT22;3658;47.992;10.158;2023-09-07T09:20:55;22.10;63.70
7234;DHT22;3658;47.992;10.158;2023-09-07T09:23:30;22.10;63.60
7234;DHT22;3658;47.992;10.158;2023-09-07T09:25:57;22.10;63.60
7234;DHT22;3658;47.992;10.158;2023-09-07T09:28:25;22.10;63.70
7234;DHT22;3658;47.992;10.158;2023-09-07T09:30:53;22.10;63.70
7234;DHT22;3658;47.992;10.158;2023-09-07T09:33:20;22.10;63.70
7234;DHT22;3658;47.992;10.158;2023-09-07T09:35:47;22.10;63.70
7234;DHT22;3658;47.992;10.158;2023-09-07T09:38:14;22.10;63.70
7234;DHT22;3658;47.992;10.158;2023-09-07T09:40:42;22.10;63.70
7234;DHT22;3658;47.992;10.158;2023-09-07T09:43:10;22.10;63.70
7234;DHT22;3658;47.992;10.158;2023-09-07T09:45:38;22.10;63.70
7234;DHT22;3658;47.992;10.158;2023-09-07T09:48:05;22.10;63.70
7234;DHT22;3658;47.992;10.158;2023-09-07T09:50:33;22.10;63.70
7234;DHT22;3658;47.992;10.158;2023-09-07T09:53:03;22.10;63.70
7234;DHT22;3658;47.992;10.158;2023-09-07T09:55:32;22.10;63.60
7234;DHT22;3658;47.992;10.158;2023-09-07T09:58:00;22.10;63.60
7234;DHT22;3658;47.992;10.158;2023-09-07T10:00:27;22.10;63.60
7234;DHT22;3658;47.992;10.158;2023-09-07T10:03:04;22.10;63.60
7234;DHT22;3658;47.992;10.158;2023-09-07T10:05:32;22.10;63.70
7234;DHT22;3658;47.992;10.158;2023-09-07T10:08:09;22.10;63.70
7234;DHT22;3658;47.992;10.158;2023-09-07T10:10:37;22.10;63.70
7234;DHT22;3658;47.992;10.158;2023-09-07T10:13:05;22.10;63.70
7234;DHT22;3658;47.992;10.158;2023-09-07T10:15:32;22.10;63.70
7234;DHT22;3658;47.992;10.158;2023-09-07T10:18:05;22.10;63.70
7234;DHT22;3658;47.992;10.158;2023-09-07T10:20:48;22.10;63.70
7234;DHT22;3658;47.992;10.158;2023-09-07T10:23:15;22.10;63.70
7234;DHT22;3658;47.992;10.158;2023-09-07T10:25:42;22.10;63.70
7234;DHT22;3658;47.992;10.158;2023-09-07T10:28:19;22.10;63.70
7234;DHT22;3658;47.992;10.158;2023-09-07T10:30:57;22.10;63.70
7234;DHT22;3658;47.992;10.158;2023-09-07T10:33:24;22.10;63.70
7234;DHT22;3658;47.992;10.158;2023-09-07T10:35:51;22.10;63.70
7234;DHT22;3658;47.992;10.158;2023-09-07T10:38:18;22.10;63.70
7234;DHT22;3658;47.992;10.158;2023-09-07T10:40:45;22.10;63.70
7234;DHT22;3658;47.992;10.158;2023-09-07T10:43:11;22.10;63.80
7234;DHT22;3658;47.992;10.158;2023-09-07T10:45:44;22.10;63.80
7234;DHT22;3658;47.992;10.158;2023-09-07T10:48:12;22.10;63.80
7234;DHT22;3658;47.992;10.158;2023-09-07T10:50:43;22.10;63.80
7234;DHT22;3658;47.992;10.158;2023-09-07T10:53:12;22.10;63.80
7234;DHT22;3658;47.992;10.158;2023-09-07T10:55:40;22.10;63.80
7234;DHT22;3658;47.992;10.158;2023-09-07T10:58:09;22.10;63.80
7234;DHT22;3658;47.992;10.158;2023-09-07T11:00:36;22.10;63.80
7234;DHT22;3658;47.992;10.158;2023-09-07T11:03:10;22.10;63.70
7234;DHT22;3658;47.992;10.158;2023-09-07T11:05:37;22.10;63.80
7234;DHT22;3658;47.992;10.158;2023-09-07T11:08:06;22.10;63.80
7234;DHT22;3658;47.992;10.158;2023-09-07T11:10:34;22.10;63.80
7234;DHT22;3658;47.992;10.158;2023-09-07T11:13:04;22.10;63.80
7234;DHT22;3658;47.992;10.158;2023-09-07T11:15:32;22.10;63.80
7234;DHT22;3658;47.992;10.158;2023-09-07T11:18:04;22.10;63.80
7234;DHT22;3658;47.992;10.158;2023-09-07T11:20:34;22.10;63.80
7234;DHT22;3658;47.992;10.158;2023-09-07T11:23:01;22.10;63.80
7234;DHT22;3658;47.992;10.158;2023-09-07T11:25:34;22.10;63.90
7234;DHT22;3658;47.992;10.158;2023-09-07T11:28:02;22.10;63.80
7234;DHT22;3658;47.992;10.158;2023-09-07T11:30:29;22.10;63.90
7234;DHT22;3658;47.992;10.158;2023-09-07T11:33:01;22.10;63.90
7234;DHT22;3658;47.992;10.158;2023-09-07T11:35:28;22.10;63.80
7234;DHT22;3658;47.992;10.158;2023-09-07T11:37:56;22.10;63.80
7234;DHT22;3658;47.992;10.158;2023-09-07T11:40:23;22.10;63.80
7234;DHT22;3658;47.992;10.158;2023-09-07T11:42:49;22.10;63.80
7234;DHT22;3658;47.992;10.158;2023-09-07T11:45:16;22.10;63.80
7234;DHT22;3658;47.992;10.158;2023-09-07T11:47:44;22.10;63.80
7234;DHT22;3658;47.992;10.158;2023-09-07T11:50:11;22.10;63.90
7234;DHT22;3658;47.992;10.158;2023-09-07T11:52:38;22.10;63.80
7234;DHT22;3658;47.992;10.158;2023-09-07T11:55:07;22.10;63.90
7234;DHT22;3658;47.992;10.158;2023-09-07T11:57:35;22.10;63.90
7234;DHT22;3658;47.992;10.158;2023-09-07T12:00:03;22.10;63.90
7234;DHT22;3658;47.992;10.158;2023-09-07T12:02:31;22.10;63.90
7234;DHT22;3658;47.992;10.158;2023-09-07T12:04:58;22.10;63.90
7234;DHT22;3658;47.992;10.158;2023-09-07T12:07:26;22.10;63.90
7234;DHT22;3658;47.992;10.158;2023-09-07T12:09:52;22.10;63.90
7234;DHT22;3658;47.992;10.158;2023-09-07T12:12:23;22.10;63.90
7234;DHT22;3658;47.992;10.158;2023-09-07T12:14:50;22.10;63.90
7234;DHT22;3658;47.992;10.158;2023-09-07T12:17:16;22.10;63.80
7234;DHT22;3658;47.992;10.158;2023-09-07T12:19:45;22.10;63.90
7234;DHT22;3658;47.992;10.158;2023-09-07T12:22:12;22.10;63.90
7234;DHT22;3658;47.992;10.158;2023-09-07T12:24:39;22.10;64.00
7234;DHT22;3658;47.992;10.158;2023-09-07T12:27:05;22.10;63.90
7234;DHT22;3658;47.992;10.158;2023-09-07T12:29:33;22.10;63.90
7234;DHT22;3658;47.992;10.158;2023-09-07T12:32:00;22.10;63.90
7234;DHT22;3658;47.992;10.158;2023-09-07T12:34:27;22.10;63.90
7234;DHT22;3658;47.992;10.158;2023-09-07T12:36:54;22.10;64.00
7234;DHT22;3658;47.992;10.158;2023-09-07T12:39:21;22.10;64.00
7234;DHT22;3658;47.992;10.158;2023-09-07T12:41:48;22.10;64.00
7234;DHT22;3658;47.992;10.158;2023-09-07T12:44:14;22.10;64.10
7234;DHT22;3658;47.992;10.158;2023-09-07T12:46:44;22.10;64.00
7234;DHT22;3658;47.992;10.158;2023-09-07T12:49:11;22.10;64.00
7234;DHT22;3658;47.992;10.158;2023-09-07T12:51:40;22.10;64.00
7234;DHT22;3658;47.992;10.158;2023-09-07T12:54:07;22.10;64.00
7234;DHT22;3658;47.992;10.158;2023-09-07T12:56:34;22.10;63.90
7234;DHT22;3658;47.992;10.158;2023-09-07T12:59:01;22.10;64.00
7234;DHT22;3658;47.992;10.158;2023-09-07T13:01:29;22.10;64.00
7234;DHT22;3658;47.992;10.158;2023-09-07T13:03:57;22.10;64.00
7234;DHT22;3658;47.992;10.158;2023-09-07T13:06:24;22.10;64.00
7234;DHT22;3658;47.992;10.158;2023-09-07T13:08:51;22.10;64.00
7234;DHT22;3658;47.992;10.158;2023-09-07T13:11:18;22.10;64.00
7234;DHT22;3658;47.992;10.158;2023-09-07T13:13:45;22.10;64.10
7234;DHT22;3658;47.992;10.158;2023-09-07T13:16:11;22.10;64.70
7234;DHT22;3658;47.992;10.158;2023-09-07T13:18:38;22.10;64.00
7234;DHT22;3658;47.992;10.158;2023-09-07T13:21:07;22.10;64.00
7234;DHT22;3658;47.992;10.158;2023-09-07T13:23:33;22.10;64.00
7234;DHT22;3658;47.992;10.158;2023-09-07T13:26:00;22.10;64.00
7234;DHT22;3658;47.992;10.158;2023-09-07T13:28:27;22.10;64.00
7234;DHT22;3658;47.992;10.158;2023-09-07T13:30:53;22.10;64.00
7234;DHT22;3658;47.992;10.158;2023-09-07T13:33:20;22.10;64.00
7234;DHT22;3658;47.992;10.158;2023-09-07T13:35:47;22.10;64.00
7234;DHT22;3658;47.992;10.158;2023-09-07T13:38:15;22.10;64.00
7234;DHT22;3658;47.992;10.158;2023-09-07T13:40:42;22.10;64.00
7234;DHT22;3658;47.992;10.158;2023-09-07T13:43:09;22.10;64.10
7234;DHT22;3658;47.992;10.158;2023-09-07T13:45:36;22.10;64.00
7234;DHT22;3658;47.992;10.158;2023-09-07T13:48:03;22.10;64.00
7234;DHT22;3658;47.992;10.158;2023-09-07T13:50:30;22.10;64.00
7234;DHT22;3658;47.992;10.158;2023-09-07T13:52:57;22.10;64.00
7234;DHT22;3658;47.992;10.158;2023-09-07T13:55:25;22.10;64.10
7234;DHT22;3658;47.992;10.158;2023-09-07T13:57:52;22.10;64.00
7234;DHT22;3658;47.992;10.158;2023-09-07T14:00:19;22.10;64.00
7234;DHT22;3658;47.992;10.158;2023-09-07T14:02:45;22.10;64.00
7234;DHT22;3658;47.992;10.158;2023-09-07T14:05:12;22.10;64.10
7234;DHT22;3658;47.992;10.158;2023-09-07T14:07:39;22.10;64.10
7234;DHT22;3658;47.992;10.158;2023-09-07T14:10:07;22.10;64.10
7234;DHT22;3658;47.992;10.158;2023-09-07T14:12:35;22.10;64.20
7234;DHT22;3658;47.992;10.158;2023-09-07T14:15:02;22.10;64.20
7234;DHT22;3658;47.992;10.158;2023-09-07T14:17:28;22.10;64.20
7234;DHT22;3658;47.992;10.158;2023-09-07T14:19:55;22.10;64.20
7234;DHT22;3658;47.992;10.158;2023-09-07T14:22:22;22.10;64.10
7234;DHT22;3658;47.992;10.158;2023-09-07T14:24:48;22.10;64.10
7234;DHT22;3658;47.992;10.158;2023-09-07T14:27:15;22.10;64.10
7234;DHT22;3658;47.992;10.158;2023-09-07T14:29:43;22.10;64.10
7234;DHT22;3658;47.992;10.158;2023-09-07T14:32:10;22.10;64.10
7234;DHT22;3658;47.992;10.158;2023-09-07T14:34:37;22.20;64.30
7234;DHT22;3658;47.992;10.158;2023-09-07T14:37:04;22.10;64.20
7234;DHT22;3658;47.992;10.158;2023-09-07T14:39:31;22.10;64.20
7234;DHT22;3658;47.992;10.158;2023-09-07T14:41:57;22.10;64.20
7234;DHT22;3658;47.992;10.158;2023-09-07T14:44:26;22.10;64.20
7234;DHT22;3658;47.992;10.158;2023-09-07T14:46:55;22.20;64.20
7234;DHT22;3658;47.992;10.158;2023-09-07T14:49:22;22.10;64.10
7234;DHT22;3658;47.992;10.158;2023-09-07T14:51:48;22.20;64.20
7234;DHT22;3658;47.992;10.158;2023-09-07T14:54:15;22.10;64.10
7234;DHT22;3658;47.992;10.158;2023-09-07T14:56:43;22.20;64.20
7234;DHT22;3658;47.992;10.158;2023-09-07T14:59:10;22.10;64.10
7234;DHT22;3658;47.992;10.158;2023-09-07T15:01:37;22.20;64.30
7234;DHT22;3658;47.992;10.158;2023-09-07T15:04:05;22.20;64.20
7234;DHT22;3658;47.992;10.158;2023-09-07T15:06:32;22.20;64.40
7234;DHT22;3658;47.992;10.158;2023-09-07T15:08:59;22.20;64.60
7234;DHT22;3658;47.992;10.158;2023-09-07T15:11:26;22.20;64.70
7234;DHT22;3658;47.992;10.158;2023-09-07T15:13:53;22.20;64.80
7234;DHT22;3658;47.992;10.158;2023-09-07T15:16:21;22.20;64.80
7234;DHT22;3658;47.992;10.158;2023-09-07T15:18:48;22.20;64.80
7234;DHT22;3658;47.992;10.158;2023-09-07T15:21:18;22.30;64.90
7234;DHT22;3658;47.992;10.158;2023-09-07T15:23:45;22.20;64.80
7234;DHT22;3658;47.992;10.158;2023-09-07T15:26:14;22.20;64.80
7234;DHT22;3658;47.992;10.158;2023-09-07T15:28:40;22.30;64.80
7234;DHT22;3658;47.992;10.158;2023-09-07T15:31:07;22.30;65.60
7234;DHT22;3658;47.992;10.158;2023-09-07T15:33:34;22.30;65.80
7234;DHT22;3658;47.992;10.158;2023-09-07T15:36:01;22.40;66.20
7234;DHT22;3658;47.992;10.158;2023-09-07T15:38:29;22.40;66.50
7234;DHT22;3658;47.992;10.158;2023-09-07T15:40:56;22.50;67.10
7234;DHT22;3658;47.992;10.158;2023-09-07T15:43:24;22.50;66.90
7234;DHT22;3658;47.992;10.158;2023-09-07T15:45:52;22.50;66.10
7234;DHT22;3658;47.992;10.158;2023-09-07T15:48:19;22.40;65.70